FACTHSSS

Guest
Details From FACT - Cape Town International
To HSSS - Khartoum
Flight Number -
Tags Generated
Created
Modified
Stats Distance 3,082 nm / 5,708 km
Max Altitude 0 ft / 0 m
Waypoints 5
Social Downloads 4
Likes 0
Share VATSIM

Download

Looking for another format? Having issues loading an existing format? Contact us
Advertisement - Login to hide

Notes

Generated

Route

FACT MNV ONRAK KOBDO HSSS

ID Type Via Altitude Latitude Longitude Leg Dist Tot Dist Heading (true) Name
O FACT APT - 0 ft / 0 m -33.96149˚ 18.59772˚ - 0 nm - -
MNV VOR - 0 ft / 0 m -19.99037˚ 23.38881˚ 877 nm 877 nm 18° / 16° MAUN VOR-DME
ONRAK FIX - 0 ft / 0 m -9.41667˚ 26.25002˚ 656 nm 1533 nm 15° / 14° -
KOBDO FIX - 0 ft / 0 m -2.14914˚ 27.98322˚ 448 nm 1981 nm 13° / 13° -
O HSSS APT - 0 ft / 0 m 15.60296˚ 32.55303˚ 1100 nm 3082 nm 14° / 15° -

Altitude Profile

Advertisement - Login to hide

Weather


0- 5 10 15 20 25 30 35+ Temperature / ° C

Clouds and Precipitation
Forecast for 2017-12-17 00:00 UTC. Updated an hour ago

Ground ~20,000 ft ~40,000 ft Winds

FACT

Details ICAO FACT (CPT)
Name Cape Town International
Region South Africa
Timezone Africa/Johannesburg (UTC+2.0)
Stats Elevation 151 ft / 46 m (AMSL)
Location -33.970501° 18.604405°
Runways 2
Magnetic Variation 25.344° W

METAR

FACT 162200Z 15024G35KT CAVOK 19/13 Q1014 NOSIG

Decode

TAF

TAF FACT 161600Z 1618/1724 17020KT 9999 FEW030 FM171200 16028KT 9999 FEW030 TX23/1712Z TN17/1704Z

Decode

Departure Runways

ID Width Length Bearing (true) Bearing (mag) Surface Threshold Offset Overrun Length
01 200 ft / 61 m 10,527 ft / 3,209 m 345.27° 10.61° Asphalt 0 ft / 0 m 195 ft / 59 m
16 151 ft / 46 m 5,586 ft / 1,703 m 135.35° 160.69° Asphalt 300 ft / 91 m 0 ft / 0 m
19 200 ft / 61 m 10,527 ft / 3,209 m 165.27° 190.61° Asphalt 0 ft / 0 m 195 ft / 59 m
34 151 ft / 46 m 5,586 ft / 1,703 m 315.35° 340.69° Asphalt 300 ft / 91 m 0 ft / 0 m

HSSS

Details ICAO HSSS (KRT)
Name KHARTOUM
Region Sudan and South Sudan
Timezone Africa/Khartoum (UTC+3.0)
Stats Elevation 1,265 ft / 386 m (AMSL)
Location 15.589499° 32.553159°
Runways 1
Magnetic Variation 3.385° E

METAR

HSSS 162230Z 36009KT CAVOK 24/08 Q1014 NOSIG

Decode

TAF

TAF HSSS 161700Z 1618/1724 36010G20KT CAVOK

Decode

Destination Runways

ID Width Length Bearing (true) Bearing (mag) Surface Threshold Offset Overrun Length
18 148 ft / 45 m 9,822 ft / 2,994 m 179.48° 176.09° Asphalt 0 ft / 0 m 220 ft / 67 m
36 148 ft / 45 m 9,822 ft / 2,994 m 359.48° 356.09° Asphalt 0 ft / 0 m 215 ft / 66 m

Approach Navaids

Runway Type Ident Frequency Range Bearing (true) Bearing (mag) Slope Elevation
18 Localiser KIS 110.70 MHz 18 nm / 33 km 180.05° 176.66° - 1,265 ft / 386 m (AMSL)
18 Glidescope KIS 110.70 MHz 10 nm / 19 km 179.48° 176.10° 3.00° 1,265 ft / 386 m (AMSL)
36 Localiser KIN 109.70 MHz 18 nm / 33 km 359.46° 356.08° - 1,265 ft / 386 m (AMSL)
36 Glidescope KIN 109.70 MHz 10 nm / 19 km 359.48° 356.10° 3.00° 1,265 ft / 386 m (AMSL)

Popular Alternatives